Time;durP1;ratioP1;P1;durP2;ratioP2;P2;SDS_P1;SDS_P2;PMS_P1;PMS_P2;Temp;Humidity;BMP_temperature;BMP_pressure;BME280_temperature;BME280_humidity;BME280_pressure;Samples;Min_cycle;Max_cycle;Signal;HPM_P1;HPM_P2
2021/08/24 00:01:40;;;;;;;4.12;1.65;;;;;;;14.12;82.10;101245.59;1759183;79;26522;-70
2021/08/24 00:04:06;;;;;;;4.47;2.35;;;;;;;14.10;82.05;101246.14;1765701;80;27471;-69
2021/08/24 00:06:32;;;;;;;3.17;2.08;;;;;;;14.08;82.04;101241.30;1752826;80;25809;-69
2021/08/24 00:08:59;;;;;;;3.87;1.70;;;;;;;14.07;82.02;101239.55;1745160;80;25720;-69
2021/08/24 00:11:25;;;;;;;8.15;1.85;;;;;;;14.05;82.00;101244.14;1757137;80;25533;-69
2021/08/24 00:13:52;;;;;;;4.90;2.10;;;;;;;14.03;81.97;101240.17;1743612;80;25794;-69
2021/08/24 00:16:19;;;;;;;7.75;2.60;;;;;;;14.01;81.97;101246.58;1750945;80;29656;-70
2021/08/24 00:18:46;;;;;;;5.72;2.17;;;;;;;14.00;81.96;101247.52;1760079;79;26528;-69
2021/08/24 00:21:13;;;;;;;3.35;1.72;;;;;;;13.98;81.99;101248.95;1755914;80;25802;-70
2021/08/24 00:23:41;;;;;;;4.95;1.80;;;;;;;13.98;81.96;101257.91;1734470;80;25744;-69
2021/08/24 00:26:07;;;;;;;3.72;1.77;;;;;;;13.94;81.96;101252.27;1749189;80;25791;-69
2021/08/24 00:28:35;;;;;;;4.03;1.90;;;;;;;13.94;81.97;101246.00;1737873;80;27529;-69
2021/08/24 00:31:01;;;;;;;5.20;2.27;;;;;;;13.94;81.96;101250.91;1740805;80;27112;-69
2021/08/24 00:33:28;;;;;;;4.80;1.85;;;;;;;13.93;81.94;101253.21;1747227;80;26167;-69
2021/08/24 00:35:54;;;;;;;4.08;1.72;;;;;;;13.92;81.93;101254.63;1751018;80;25716;-69
2021/08/24 00:38:23;;;;;;;5.08;2.00;;;;;;;13.90;81.94;101253.36;1742472;80;26060;-68
2021/08/24 00:40:53;;;;;;;4.08;2.25;;;;;;;13.89;81.91;101253.42;1741807;80;28384;-69
2021/08/24 00:43:21;;;;;;;6.33;2.12;;;;;;;13.86;81.92;101252.23;1713704;80;25945;-68
2021/08/24 00:45:57;;;;;;;3.00;1.80;;;;;;;13.84;81.94;101253.64;1702411;82;26496;-68
2021/08/24 00:48:31;;;;;;;3.70;2.12;;;;;;;13.84;81.95;101256.34;1713580;81;26731;-68
2021/08/24 00:51:00;;;;;;;6.08;2.10;;;;;;;13.83;81.94;101257.76;1732423;80;25777;-68
2021/08/24 00:53:32;;;;;;;4.10;2.02;;;;;;;13.81;81.93;101253.79;1681179;83;27449;-68
2021/08/24 00:56:02;;;;;;;7.83;2.05;;;;;;;13.79;81.92;101255.68;1757240;80;26482;-69
2021/08/24 00:58:30;;;;;;;6.58;2.15;;;;;;;13.77;81.93;101258.92;1743873;80;26485;-68
2021/08/24 01:00:56;;;;;;;9.75;2.08;;;;;;;13.76;81.95;101257.17;1736993;80;25670;-71
2021/08/24 01:03:27;;;;;;;5.05;1.85;;;;;;;13.77;81.95;101266.12;1737005;81;25796;-71
2021/08/24 01:06:01;;;;;;;5.17;1.98;;;;;;;13.76;81.97;101273.34;1743412;80;27199;-68
2021/08/24 01:08:33;;;;;;;;;;;;;;;13.74;81.97;101264.45;1752965;80;25788;-68
2021/08/24 01:11:22;;;;;;;4.45;1.90;;;;;;;13.73;81.99;101269.44;1735176;80;25829;-69
2021/08/24 01:14:12;;;;;;;6.03;2.13;;;;;;;13.71;82.00;101275.38;1724569;81;25752;-70
2021/08/24 01:16:45;;;;;;;4.90;2.10;;;;;;;13.72;82.03;101270.38;1735536;80;25713;-70
2021/08/24 01:19:50;;;;;;;7.22;2.70;;;;;;;13.71;82.00;101268.63;1754026;79;27389;-69
2021/08/24 01:22:55;;;;;;;5.67;2.00;;;;;;;13.71;82.05;101274.02;1733317;80;25755;-69
2021/08/24 01:25:39;;;;;;;5.30;2.10;;;;;;;13.71;82.05;101275.38;1735159;81;25676;-70
2021/08/24 01:28:23;;;;;;;4.08;2.10;;;;;;;13.71;82.11;101278.06;1737625;80;25971;-68
2021/08/24 01:31:36;;;;;;;7.62;2.00;;;;;;;13.71;82.13;101278.53;1739077;80;25765;-69
2021/08/24 01:34:26;;;;;;;5.65;2.17;;;;;;;13.68;82.11;101278.20;1761021;80;26720;-70
2021/08/24 01:37:05;;;;;;;6.28;1.80;;;;;;;13.69;82.17;101276.39;1717777;82;25731;-68
2021/08/24 01:39:47;;;;;;;5.12;2.25;;;;;;;13.69;82.16;101278.61;1744081;81;25697;-69
2021/08/24 01:42:22;;;;;;;5.20;2.00;;;;;;;13.70;82.17;101273.63;1743363;80;25768;-69
2021/08/24 01:45:09;;;;;;;8.20;2.08;;;;;;;13.70;82.27;101282.17;1717961;80;26066;-69
2021/08/24 01:48:02;;;;;;;9.75;2.45;;;;;;;13.68;82.24;101288.98;1769404;80;27438;-68
2021/08/24 01:50:38;;;;;;;7.60;2.58;;;;;;;13.68;82.28;101290.33;1760341;80;25732;-68
2021/08/24 01:53:30;;;;;;;5.62;2.90;;;;;;;13.68;82.27;101286.29;1747285;80;25830;-69
2021/08/24 01:56:02;;;;;;;10.05;3.10;;;;;;;13.69;82.28;101290.73;1741862;80;25785;-69
2021/08/24 01:58:36;;;;;;;6.12;2.87;;;;;;;13.69;82.27;101292.08;1719835;81;26387;-69
2021/08/24 02:01:07;;;;;;;4.75;2.42;;;;;;;13.69;82.27;101292.08;1742961;80;27482;-69
2021/08/24 02:03:38;;;;;;;7.12;2.70;;;;;;;13.69;82.29;101289.86;1743104;80;26700;-69
2021/08/24 02:06:36;;;;;;;8.45;2.67;;;;;;;13.69;82.33;101285.81;1742646;81;25733;-69
2021/08/24 02:09:11;;;;;;;11.48;2.85;;;;;;;13.69;82.35;101291.20;1739095;80;26293;-68
2021/08/24 02:11:39;;;;;;;6.15;2.98;;;;;;;13.69;82.41;101292.08;1747608;80;25666;-68
2021/08/24 02:14:09;;;;;;;6.87;3.12;;;;;;;13.71;82.42;101294.70;1748812;80;27527;-69
2021/08/24 02:16:40;;;;;;;7.35;2.62;;;;;;;13.70;82.38;101299.22;1732224;80;26640;-68
2021/08/24 02:19:14;;;;;;;7.35;2.60;;;;;;;13.69;82.37;101300.16;1742586;80;25797;-68
2021/08/24 02:21:46;;;;;;;4.67;2.50;;;;;;;13.69;82.38;101301.98;1697204;81;27706;-68
2021/08/24 02:24:18;;;;;;;9.83;2.83;;;;;;;13.70;82.40;101307.30;1703460;81;25765;-68
2021/08/24 02:26:48;;;;;;;8.83;2.70;;;;;;;13.69;82.38;101303.33;1695884;81;27458;-68
2021/08/24 02:29:14;;;;;;;6.90;2.50;;;;;;;13.71;82.38;101313.09;1750656;80;26224;-69
2021/08/24 02:32:06;;;;;;;7.35;2.30;;;;;;;13.69;82.39;101312.28;1715870;81;25886;-68
2021/08/24 02:34:57;;;;;;;8.55;2.70;;;;;;;13.70;82.41;101313.16;1724695;81;25812;-69
2021/08/24 02:38:08;;;;;;;7.28;2.60;;;;;;;13.72;82.44;101312.61;1723228;81;25659;-68
2021/08/24 02:40:56;;;;;;;5.30;2.50;;;;;;;13.73;82.46;101318.41;1748312;80;27357;-68
2021/08/24 02:43:46;;;;;;;7.67;2.42;;;;;;;13.71;82.45;101318.95;1744197;80;27259;-68
2021/08/24 02:46:26;;;;;;;6.83;2.45;;;;;;;13.72;82.42;101318.88;1743917;80;25743;-69
2021/08/24 02:49:03;;;;;;;8.75;2.72;;;;;;;13.71;82.43;101314.44;1746391;80;25880;-68
2021/08/24 02:51:32;;;;;;;3.72;2.02;;;;;;;13.72;82.46;101316.19;1751711;80;25813;-69
2021/08/24 02:54:04;;;;;;;4.85;2.02;;;;;;;13.72;82.43;101316.66;1742481;81;27460;-69
2021/08/24 02:56:32;;;;;;;6.17;2.02;;;;;;;13.72;82.40;101322.92;1748826;80;25763;-69
2021/08/24 02:59:01;;;;;;;5.62;2.17;;;;;;;13.73;82.40;101321.10;1743608;80;26478;-69
2021/08/24 03:01:27;;;;;;;5.67;2.27;;;;;;;13.72;82.43;101322.92;1735410;81;25740;-69
2021/08/24 03:03:53;;;;;;;6.70;2.77;;;;;;;13.72;82.43;101324.74;1728331;80;25790;-70
2021/08/24 03:06:19;;;;;;;10.28;2.20;;;;;;;13.72;82.44;101326.09;1743863;80;25755;-68
2021/08/24 03:08:49;;;;;;;7.65;2.08;;;;;;;13.73;82.45;101330.06;1715786;81;25765;-69
2021/08/24 03:11:20;;;;;;;11.30;2.65;;;;;;;13.73;82.43;101338.61;1722859;82;25771;-69
2021/08/24 03:14:06;;;;;;;6.97;2.70;;;;;;;13.72;82.41;101328.78;1666284;84;25796;-69
2021/08/24 03:16:39;;;;;;;5.33;2.12;;;;;;;13.73;82.40;101321.10;1694211;83;25756;-68
2021/08/24 03:19:16;;;;;;;3.85;1.90;;;;;;;13.73;82.39;101333.22;1706648;82;25819;-68
2021/08/24 03:21:43;;;;;;;7.33;2.00;;;;;;;13.72;82.38;101336.39;1735223;80;27317;-68
2021/08/24 03:24:14;;;;;;;7.62;2.08;;;;;;;13.74;82.41;101338.55;1731733;80;25940;-69
2021/08/24 03:26:44;;;;;;;4.85;2.02;;;;;;;13.73;82.36;101338.14;1742609;80;26089;-69
2021/08/24 03:29:16;;;;;;;4.17;1.82;;;;;;;13.72;82.34;101335.52;1725568;80;26320;-69
2021/08/24 03:31:46;;;;;;;6.62;1.80;;;;;;;13.74;82.32;101343.05;1738445;80;28192;-70
2021/08/24 03:34:12;;;;;;;3.93;1.90;;;;;;;13.74;82.33;101347.97;1735504;80;26454;-69
2021/08/24 03:36:39;;;;;;;4.00;1.72;;;;;;;13.72;82.32;101353.91;1740636;80;25699;-69
2021/08/24 03:39:07;;;;;;;6.25;2.02;;;;;;;13.71;82.31;101345.42;1756227;80;25790;-68
2021/08/24 03:41:33;;;;;;;6.55;2.10;;;;;;;13.71;82.31;101350.80;1748156;80;25741;-69
2021/08/24 03:44:01;;;;;;;6.25;2.62;;;;;;;13.69;82.27;101350.00;1750630;80;27408;-69
2021/08/24 03:46:29;;;;;;;10.78;2.47;;;;;;;13.69;82.25;101358.08;1745937;80;25703;-69
2021/08/24 03:48:56;;;;;;;6.30;2.22;;;;;;;13.68;82.22;101353.64;1737392;80;25931;-69
2021/08/24 03:51:22;;;;;;;10.00;2.10;;;;;;;13.68;82.21;101348.72;1740425;80;25687;-68
2021/08/24 03:53:48;;;;;;;5.47;1.98;;;;;;;13.68;82.19;101356.80;1742648;80;26425;-69
2021/08/24 03:56:16;;;;;;;9.55;2.10;;;;;;;13.68;82.17;101364.89;1711975;82;27501;-68
2021/08/24 03:58:42;;;;;;;4.40;2.00;;;;;;;13.67;82.13;101369.87;1699425;81;27251;-70
2021/08/24 04:04:50;;;;;;;6.57;2.30;;;;;;;13.67;82.11;101376.13;1709944;82;26346;-69
2021/08/24 04:07:16;;;;;;;14.83;2.50;;;;;;;13.63;82.06;101375.86;1706463;82;25707;-69
2021/08/24 04:09:43;;;;;;;4.10;2.15;;;;;;;13.63;82.06;101383.95;1706442;82;27397;-69
2021/08/24 04:12:14;;;;;;;5.58;1.92;;;;;;;13.63;82.05;101383.95;1702018;82;25698;-68
2021/08/24 04:14:42;;;;;;;8.78;2.20;;;;;;;13.62;82.04;101380.38;1717119;82;25756;-69
2021/08/24 04:17:09;;;;;;;6.95;2.00;;;;;;;13.63;82.03;101379.91;1694102;82;25708;-68
2021/08/24 04:19:36;;;;;;;6.60;1.90;;;;;;;13.63;82.00;101384.82;1679792;83;25848;-68
2021/08/24 04:22:08;;;;;;;4.47;1.80;;;;;;;13.63;81.99;101386.64;1670397;84;27425;-68
2021/08/24 04:24:35;;;;;;;9.63;2.30;;;;;;;13.63;81.97;101390.69;1673747;84;25964;-69
2021/08/24 04:27:01;;;;;;;5.90;2.50;;;;;;;13.63;81.94;101397.42;1651650;84;25815;-69
2021/08/24 04:29:29;;;;;;;5.95;2.27;;;;;;;13.64;81.93;101396.47;1675564;85;25727;-69
2021/08/24 04:31:56;;;;;;;4.58;2.12;;;;;;;13.63;81.89;101397.42;1686875;83;26174;-69
2021/08/24 04:34:24;;;;;;;12.37;2.60;;;;;;;13.63;81.83;101396.07;1694545;82;27340;-69
2021/08/24 04:36:50;;;;;;;5.00;1.70;;;;;;;13.62;81.80;101402.40;1708463;82;26244;-68
2021/08/24 04:39:18;;;;;;;8.83;2.10;;;;;;;13.61;81.77;101400.65;1708684;82;25918;-69
2021/08/24 04:41:45;;;;;;;4.40;1.82;;;;;;;13.61;81.76;101396.14;1701227;82;26285;-69
2021/08/24 04:44:11;;;;;;;6.12;2.87;;;;;;;13.63;81.71;101406.37;1718783;82;25672;-68
2021/08/24 04:46:37;;;;;;;5.60;2.55;;;;;;;13.64;81.71;101412.16;1718995;82;27413;-69
2021/08/24 04:49:03;;;;;;;7.37;2.20;;;;;;;13.64;81.65;101409.94;1704080;82;25869;-69
2021/08/24 04:51:29;;;;;;;7.42;2.37;;;;;;;13.65;81.63;101412.57;1716056;82;25781;-69
2021/08/24 04:53:59;;;;;;;8.20;2.02;;;;;;;13.67;81.62;101407.59;1699673;82;25709;-69
2021/08/24 04:56:25;;;;;;;7.25;2.25;;;;;;;13.63;81.55;101408.19;1715321;82;25773;-69
2021/08/24 04:58:50;;;;;;;9.25;2.08;;;;;;;13.70;81.52;101411.49;1727422;81;27457;-69
2021/08/24 05:01:16;;;;;;;6.28;2.17;;;;;;;13.71;81.45;101421.33;1725100;81;25699;-68
2021/08/24 05:03:42;;;;;;;6.35;2.10;;;;;;;13.71;81.41;101414.12;1687809;83;25730;-70
2021/08/24 05:06:09;;;;;;;8.78;2.17;;;;;;;13.73;81.38;101415.40;1714288;82;25845;-69
2021/08/24 05:08:36;;;;;;;9.13;2.10;;;;;;;13.72;81.23;101417.22;1734582;81;25918;-68
2021/08/24 05:11:04;;;;;;;8.58;2.25;;;;;;;13.69;81.09;101424.09;1716868;82;26594;-70
2021/08/24 05:13:29;;;;;;;6.22;2.52;;;;;;;13.68;81.08;101425.03;1691445;82;25815;-69
2021/08/24 05:15:55;;;;;;;7.28;2.42;;;;;;;13.68;80.97;101431.77;1703054;82;25833;-69
2021/08/24 05:18:22;;;;;;;4.25;2.45;;;;;;;13.68;80.80;101438.50;1711894;82;27509;-69
2021/08/24 05:20:50;;;;;;;5.05;2.15;;;;;;;13.67;80.75;101435.88;1747008;80;25716;-69
2021/08/24 05:23:15;;;;;;;5.85;2.27;;;;;;;13.66;80.63;101430.95;1764011;80;27493;-68
2021/08/24 05:25:43;;;;;;;4.33;2.22;;;;;;;13.65;80.60;101440.86;1724938;81;27230;-69
2021/08/24 05:28:10;;;;;;;3.35;1.85;;;;;;;13.67;80.48;101439.44;1736337;80;25739;-69
2021/08/24 05:30:36;;;;;;;2.90;1.92;;;;;;;13.67;80.42;101443.48;1749374;80;25836;-68
2021/08/24 05:33:02;;;;;;;7.78;2.00;;;;;;;13.68;80.37;101449.75;1748888;80;25812;-67
2021/08/24 05:35:28;;;;;;;7.97;1.90;;;;;;;13.71;80.23;101449.62;1749741;80;27397;-69
2021/08/24 05:37:54;;;;;;;8.38;2.80;;;;;;;13.73;79.99;101455.34;1750183;78;25805;-69
2021/08/24 05:40:20;;;;;;;6.60;2.50;;;;;;;13.75;79.92;101453.45;1762713;79;25792;-68
2021/08/24 05:42:46;;;;;;;5.87;2.30;;;;;;;13.79;79.77;101463.63;1731039;81;25754;-69
2021/08/24 05:45:14;;;;;;;5.97;2.10;;;;;;;13.80;79.68;101461.34;1758200;80;25680;-68
2021/08/24 05:47:41;;;;;;;9.50;2.08;;;;;;;13.80;79.40;101458.17;1749226;79;27389;-69
2021/08/24 05:50:09;;;;;;;4.15;2.02;;;;;;;13.81;79.43;101459.92;1750665;80;25743;-69
2021/08/24 05:52:36;;;;;;;6.95;2.60;;;;;;;13.84;79.37;101465.18;1727535;80;25788;-70
2021/08/24 05:55:04;;;;;;;5.25;1.95;;;;;;;13.87;79.34;101466.39;1751126;80;25996;-70
2021/08/24 05:57:29;;;;;;;5.80;2.08;;;;;;;13.94;79.06;101472.39;1755750;79;25835;-71
2021/08/24 05:59:55;;;;;;;9.15;2.08;;;;;;;13.96;78.94;101463.30;1733253;80;27382;-69
2021/08/24 06:02:23;;;;;;;8.65;1.98;;;;;;;14.03;78.78;101481.42;1747329;80;25791;-69
2021/08/24 06:04:52;;;;;;;5.95;2.00;;;;;;;14.06;78.56;101477.23;1761502;80;25760;-68
2021/08/24 06:07:20;;;;;;;7.10;1.85;;;;;;;14.09;78.19;101476.22;1754785;80;25752;-69
2021/08/24 06:09:45;;;;;;;3.87;1.92;;;;;;;14.09;78.08;101478.45;1745954;80;26301;-68
2021/08/24 06:12:11;;;;;;;5.35;2.30;;;;;;;14.13;77.93;101482.76;1745930;80;27451;-70
2021/08/24 06:14:39;;;;;;;7.65;2.60;;;;;;;14.13;77.77;101485.45;1722791;81;25775;-70
2021/08/24 06:17:06;;;;;;;9.70;2.30;;;;;;;14.16;77.75;101492.53;1716203;81;25807;-68
2021/08/24 06:19:32;;;;;;;11.65;2.50;;;;;;;14.20;77.33;101494.15;1711112;81;26493;-70
2021/08/24 06:22:02;;;;;;;6.75;1.90;;;;;;;14.21;77.37;101495.90;1700914;82;25771;-70
2021/08/24 06:24:30;;;;;;;7.50;2.40;;;;;;;14.24;77.45;101499.33;1669431;84;27484;-71
2021/08/24 06:26:57;;;;;;;6.97;2.20;;;;;;;14.28;77.36;101498.25;1672662;83;26200;-71
2021/08/24 06:29:24;;;;;;;6.72;2.35;;;;;;;14.31;77.16;101501.28;1664194;83;25851;-71
2021/08/24 06:31:53;;;;;;;4.37;2.05;;;;;;;14.34;77.15;101500.27;1674300;83;26558;-71
2021/08/24 06:34:20;;;;;;;6.08;2.20;;;;;;;14.38;77.03;101504.10;1681735;83;25836;-71
2021/08/24 06:36:49;;;;;;;6.12;2.33;;;;;;;14.41;76.51;101505.79;1675575;83;27512;-71
2021/08/24 06:39:16;;;;;;;7.80;2.20;;;;;;;14.45;76.25;101506.08;1681699;83;25790;-70
2021/08/24 06:41:41;;;;;;;7.95;2.45;;;;;;;14.47;76.22;101505.55;1675591;83;25832;-70
2021/08/24 06:44:10;;;;;;;7.92;2.35;;;;;;;14.53;75.90;101506.61;1686222;83;25785;-69
2021/08/24 06:46:39;;;;;;;7.33;2.12;;;;;;;14.59;75.71;101508.55;1679209;83;25805;-69
2021/08/24 06:49:05;;;;;;;4.72;2.27;;;;;;;14.64;75.67;101508.34;1686776;83;27509;-69
2021/08/24 06:51:33;;;;;;;3.37;1.85;;;;;;;14.69;75.55;101509.00;1739860;80;26218;-68
2021/08/24 06:54:02;;;;;;;6.35;1.95;;;;;;;14.72;75.12;101512.91;1735167;80;26400;-70
2021/08/24 06:56:29;;;;;;;6.00;1.77;;;;;;;14.75;75.12;101519.98;1740577;80;26565;-69
2021/08/24 06:58:56;;;;;;;4.33;2.00;;;;;;;14.78;74.44;101514.44;1747064;80;25811;-70
2021/08/24 07:01:25;;;;;;;8.45;2.67;;;;;;;14.75;73.43;101522.68;1746096;80;27464;-69
2021/08/24 07:03:51;;;;;;;3.17;1.75;;;;;;;14.74;73.88;101520.93;1740625;80;27161;-71
2021/08/24 07:06:18;;;;;;;3.35;1.77;;;;;;;14.67;73.60;101508.67;1736150;80;25814;-69
2021/08/24 07:08:45;;;;;;;4.67;1.57;;;;;;;14.77;73.28;101518.09;1746278;80;25887;-69
2021/08/24 07:11:13;;;;;;;8.70;1.80;;;;;;;14.82;73.48;101521.45;1740370;80;25781;-70
2021/08/24 07:13:40;;;;;;;4.28;2.08;;;;;;;14.87;73.29;101513.53;1708505;82;28155;-70
2021/08/24 07:16:14;;;;;;;7.15;1.90;;;;;;;14.99;72.86;101519.30;1688919;83;26580;-70
2021/08/24 07:18:43;;;;;;;5.50;1.60;;;;;;;15.07;72.21;101509.88;1701326;81;25757;-69
2021/08/24 07:21:14;;;;;;;4.22;2.22;;;;;;;15.15;72.23;101521.66;1694329;82;26399;-71
2021/08/24 07:23:40;;;;;;;8.65;1.95;;;;;;;15.21;72.28;101522.23;1723202;81;25759;-71
2021/08/24 07:26:07;;;;;;;20.75;8.70;;;;;;;15.28;72.36;101532.75;1717727;81;27183;-70
2021/08/24 07:28:34;;;;;;;8.75;3.45;;;;;;;15.32;71.68;101525.77;1698848;82;25785;-71
2021/08/24 07:31:03;;;;;;;10.88;3.45;;;;;;;15.36;71.50;101521.09;1721541;82;25897;-70
2021/08/24 07:33:30;;;;;;;5.00;1.65;;;;;;;15.40;71.30;101527.62;1721823;81;25784;-69
2021/08/24 07:35:56;;;;;;;6.00;1.57;;;;;;;15.50;71.04;101537.50;1700480;82;25848;-70
2021/08/24 07:38:24;;;;;;;9.20;2.00;;;;;;;15.53;70.01;101529.23;1697882;82;25870;-68
2021/08/24 07:40:50;;;;;;;3.25;1.95;;;;;;;15.57;70.37;101533.57;1716478;81;26522;-71
2021/08/24 07:43:18;;;;;;;4.90;1.70;;;;;;;15.63;70.47;101527.83;1702962;81;25686;-71
2021/08/24 07:45:46;;;;;;;10.75;1.50;;;;;;;15.71;70.57;101541.83;1698454;83;25723;-70
2021/08/24 07:48:12;;;;;;;5.58;1.87;;;;;;;15.79;69.75;101538.27;1673577;84;25788;-70
2021/08/24 07:50:38;;;;;;;2.80;1.42;;;;;;;15.84;69.47;101538.91;1676324;83;27371;-71
2021/08/24 07:53:07;;;;;;;3.98;2.02;;;;;;;15.85;69.22;101550.11;1679086;83;25771;-70
2021/08/24 07:55:35;;;;;;;3.35;1.65;;;;;;;15.89;67.95;101538.67;1695265;83;26186;-69
2021/08/24 07:58:03;;;;;;;6.60;1.52;;;;;;;15.93;68.39;101546.15;1680585;83;25981;-70
2021/08/24 08:00:28;;;;;;;3.47;1.65;;;;;;;15.97;68.06;101550.44;1687455;83;25867;-70
2021/08/24 08:02:54;;;;;;;3.30;1.45;;;;;;;16.06;67.78;101546.79;1687787;83;27434;-71
2021/08/24 08:05:23;;;;;;;4.50;1.32;;;;;;;16.10;67.09;101546.16;1688544;83;26355;-69
2021/08/24 08:07:49;;;;;;;3.12;1.17;;;;;;;16.16;67.54;101555.30;1682392;83;25806;-70
2021/08/24 08:10:16;;;;;;;3.35;1.20;;;;;;;16.24;66.90;101558.48;1740136;80;25821;-68
2021/08/24 08:12:43;;;;;;;4.55;1.25;;;;;;;16.29;66.56;101555.05;1745198;80;26552;-68
2021/08/24 08:15:14;;;;;;;4.45;1.10;;;;;;;16.37;65.96;101549.23;1759392;80;26865;-70
2021/08/24 08:17:39;;;;;;;4.70;1.20;;;;;;;16.40;65.58;101555.36;1744669;80;25765;-70
2021/08/24 08:20:14;;;;;;;8.20;1.02;;;;;;;16.47;66.14;101551.38;1748028;80;26559;-70
2021/08/24 08:22:43;;;;;;;4.33;1.17;;;;;;;16.55;66.11;101555.90;1742662;80;25899;-70
2021/08/24 08:25:11;;;;;;;5.12;1.30;;;;;;;16.62;66.13;101556.92;1758643;80;25748;-70
2021/08/24 08:27:36;;;;;;;8.03;1.15;;;;;;;16.66;65.91;101562.59;1742347;80;27544;-69
2021/08/24 08:30:07;;;;;;;5.08;1.17;;;;;;;16.66;65.90;101555.35;1739040;80;25882;-69
2021/08/24 08:32:37;;;;;;;3.55;1.00;;;;;;;16.73;65.86;101556.77;1745559;81;25819;-69
2021/08/24 08:35:05;;;;;;;3.60;1.60;;;;;;;16.82;65.61;101560.33;1759300;80;25825;-70
2021/08/24 08:37:33;;;;;;;4.55;1.37;;;;;;;16.86;65.23;101556.97;1755606;80;25756;-70
2021/08/24 08:39:59;;;;;;;4.50;1.07;;;;;;;16.94;65.40;101564.20;1738362;80;27449;-70
2021/08/24 08:43:05;;;;;;;2.95;1.05;;;;;;;17.03;64.30;101560.98;1748326;81;25856;-70
2021/08/24 08:45:40;;;;;;;1.50;0.82;;;;;;;17.15;62.67;101567.06;1748418;80;25765;-70
2021/08/24 08:48:24;;;;;;;4.67;1.10;;;;;;;17.22;62.56;101559.95;1773799;79;26156;-69
2021/08/24 08:51:13;;;;;;;8.18;1.40;;;;;;;17.30;61.38;101557.67;1750045;80;25809;-70
2021/08/24 08:54:01;;;;;;;2.58;1.27;;;;;;;17.28;61.19;101568.60;1776598;80;27420;-69
2021/08/24 08:56:54;;;;;;;2.27;1.10;;;;;;;17.34;59.84;101576.39;1731432;81;25771;-69
2021/08/24 08:59:27;;;;;;;1.95;0.88;;;;;;;17.35;59.55;101576.78;1691816;83;25753;-71
2021/08/24 09:02:19;;;;;;;2.02;1.00;;;;;;;17.35;59.70;101577.27;1696905;81;25676;-70
2021/08/24 09:04:47;;;;;;;2.15;1.17;;;;;;;17.38;59.51;101570.31;1742911;80;25810;-70
2021/08/24 09:07:40;;;;;;;9.25;1.12;;;;;;;17.43;59.05;101578.57;1676194;83;27398;-70
2021/08/24 09:10:12;;;;;;;3.87;0.98;;;;;;;17.48;58.17;101580.54;1744820;80;25767;-70
2021/08/24 09:12:40;;;;;;;2.85;0.95;;;;;;;17.46;57.66;101585.17;1736301;81;25859;-68
2021/08/24 09:15:13;;;;;;;2.37;1.32;;;;;;;17.44;56.88;101574.03;1749479;80;27519;-68
2021/08/24 09:17:43;;;;;;;4.08;1.55;;;;;;;17.44;56.72;101591.16;1732533;81;26496;-69
2021/08/24 09:20:31;;;;;;;7.90;1.40;;;;;;;17.40;56.17;101592.30;1738895;80;27439;-69
2021/08/24 09:23:05;;;;;;;3.10;1.25;;;;;;;17.37;56.93;101599.25;1679455;84;26083;-69
2021/08/24 09:25:47;;;;;;;6.47;1.75;;;;;;;17.39;56.24;101588.32;1675964;83;25842;-68
2021/08/24 09:28:19;;;;;;;4.60;1.20;;;;;;;17.45;56.64;101599.69;1655330;82;26250;-69
2021/08/24 09:30:45;;;;;;;5.25;1.10;;;;;;;17.53;55.83;101597.89;1723324;82;25765;-69
2021/08/24 09:33:13;;;;;;;4.33;1.70;;;;;;;17.55;55.25;101591.91;1738035;80;27372;-72
2021/08/24 09:35:45;;;;;;;3.17;1.42;;;;;;;17.55;55.93;101599.16;1704878;82;25773;-68
2021/08/24 09:38:19;;;;;;;;;;;;;;;17.48;55.74;101595.45;1679532;83;25836;-70
2021/08/24 09:40:53;;;;;;;4.85;1.32;;;;;;;17.49;56.27;101601.75;1681708;82;26550;-70
2021/08/24 09:43:30;;;;;;;5.75;1.40;;;;;;;17.43;56.20;101589.90;1706611;82;26346;-69
2021/08/24 09:46:19;;;;;;;3.58;1.50;;;;;;;17.59;56.51;101607.52;1699576;82;27373;-70
2021/08/24 09:49:01;;;;;;;3.42;1.50;;;;;;;17.70;56.68;101600.55;1679304;83;25795;-71
2021/08/24 09:51:53;;;;;;;9.38;1.90;;;;;;;17.89;57.09;101602.19;1731292;80;25737;-68
2021/08/24 09:54:45;;;;;;;3.00;1.70;;;;;;;18.04;56.52;101599.92;1745148;80;25767;-68
2021/08/24 09:57:26;;;;;;;5.47;1.98;;;;;;;18.09;55.23;101592.39;1748642;80;25767;-68
2021/08/24 10:00:09;;;;;;;5.78;2.67;;;;;;;18.12;55.43;101603.06;1734374;80;27448;-68
2021/08/24 10:02:46;;;;;;;6.85;3.42;;;;;;;18.16;55.56;101615.48;1751335;79;26176;-69
2021/08/24 10:05:26;;;;;;;16.85;3.67;;;;;;;18.21;55.13;101599.77;1752774;80;25716;-68
2021/08/24 10:07:58;;;;;;;8.10;2.55;;;;;;;18.21;54.86;101610.62;1751347;80;26316;-69
2021/08/24 10:10:31;;;;;;;7.92;1.98;;;;;;;18.26;54.79;101612.58;1729292;80;25699;-68
2021/08/24 10:13:02;;;;;;;4.72;1.98;;;;;;;18.23;54.99;101613.23;1711542;82;29643;-69
2021/08/24 10:15:37;;;;;;;6.35;2.83;;;;;;;18.22;54.17;101601.52;1702875;82;25965;-68
2021/08/24 10:18:13;;;;;;;5.12;2.05;;;;;;;18.17;54.03;101611.80;1692579;83;25759;-70
2021/08/24 10:20:57;;;;;;;3.15;2.10;;;;;;;18.13;54.24;101618.38;1688613;83;26058;-70
2021/08/24 10:23:33;;;;;;;8.33;2.62;;;;;;;18.04;54.12;101614.84;1749391;80;25762;-68
2021/08/24 10:26:03;;;;;;;7.83;2.42;;;;;;;18.03;54.42;101619.88;1753135;79;27473;-69
2021/08/24 10:28:51;;;;;;;9.23;2.67;;;;;;;18.13;54.40;101616.53;1754203;79;25327;-70
2021/08/24 10:31:50;;;;;;;9.08;2.98;;;;;;;18.34;54.85;101613.47;1745593;80;25987;-70
2021/08/24 10:34:45;;;;;;;6.85;2.37;;;;;;;18.57;54.68;101619.73;1720120;80;25449;-70
2021/08/24 10:37:32;;;;;;;7.17;2.90;;;;;;;18.71;54.57;101616.20;1733996;81;25786;-70
2021/08/24 10:40:14;;;;;;;7.35;2.47;;;;;;;18.79;54.28;101620.67;1728675;81;27488;-71
2021/08/24 10:42:45;;;;;;;4.80;2.33;;;;;;;18.86;54.66;101622.53;1752394;79;25778;-71
2021/08/24 10:45:28;;;;;;;8.58;2.60;;;;;;;18.83;54.07;101629.02;1755095;80;25720;-70
2021/08/24 10:48:02;;;;;;;8.63;2.87;;;;;;;18.87;54.02;101627.86;1748771;80;25782;-71
2021/08/24 10:50:55;;;;;;;9.58;2.98;;;;;;;18.87;54.02;101627.86;1749518;80;26489;-69
2021/08/24 10:53:55;;;;;;;6.97;2.70;;;;;;;19.07;54.29;101630.69;1743561;80;27446;-71
2021/08/24 10:56:48;;;;;;;5.92;3.05;;;;;;;19.33;53.73;101632.63;1756115;80;25800;-70
2021/08/24 10:59:36;;;;;;;11.57;2.98;;;;;;;19.27;52.04;101628.06;1736719;80;26163;-70
2021/08/24 11:02:34;;;;;;;7.97;2.75;;;;;;;19.22;50.72;101628.36;1749472;80;26202;-70
2021/08/24 11:05:28;;;;;;;4.37;2.62;;;;;;;19.21;50.25;101628.45;1769510;79;25761;-70
2021/08/24 11:08:31;;;;;;;6.20;3.00;;;;;;;19.25;50.92;101619.13;1755684;80;27388;-70
2021/08/24 11:11:27;;;;;;;6.97;3.00;;;;;;;19.48;50.72;101636.20;1745912;80;25720;-69
2021/08/24 11:14:33;;;;;;;5.85;3.02;;;;;;;19.68;50.13;101629.00;1764122;80;25761;-69
2021/08/24 11:17:39;;;;;;;5.95;2.90;;;;;;;19.77;50.44;101631.12;1761646;80;26515;-69
2021/08/24 11:20:22;;;;;;;4.60;3.05;;;;;;;19.88;50.82;101633.61;1741129;80;25707;-67
2021/08/24 11:23:24;;;;;;;9.35;3.90;;;;;;;19.91;51.23;101643.80;1747425;80;27438;-70
2021/08/24 11:26:13;;;;;;;5.05;3.45;;;;;;;19.77;50.31;101639.28;1751030;80;25857;-69
2021/08/24 11:28:57;;;;;;;6.33;3.67;;;;;;;19.66;49.74;101642.31;1750398;80;26612;-68
2021/08/24 11:31:51;;;;;;;5.72;3.50;;;;;;;19.53;50.07;101639.52;1764931;78;25695;-69
2021/08/24 11:34:25;;;;;;;6.85;3.60;;;;;;;19.63;50.12;101633.00;1742592;80;25654;-71
2021/08/24 11:37:07;;;;;;;9.20;3.70;;;;;;;19.77;49.57;101637.05;1741834;80;27569;-70
2021/08/24 11:39:56;;;;;;;8.30;3.30;;;;;;;19.76;49.32;101629.86;1760974;80;25807;-67
2021/08/24 11:42:38;;;;;;;5.12;3.50;;;;;;;19.66;48.43;101632.80;1742476;80;25712;-68
2021/08/24 11:45:10;;;;;;;7.22;3.92;;;;;;;19.55;48.78;101638.06;1751524;80;26326;-68
2021/08/24 11:47:43;;;;;;;6.05;3.45;;;;;;;19.65;49.17;101639.21;1763004;80;25716;-69
2021/08/24 11:50:21;;;;;;;6.15;3.60;;;;;;;19.80;48.93;101629.17;1744921;80;27497;-69
2021/08/24 11:52:58;;;;;;;7.33;3.58;;;;;;;19.88;48.80;101633.61;1764678;79;25719;-67
2021/08/24 11:55:29;;;;;;;6.12;3.40;;;;;;;19.84;48.39;101626.63;1732057;80;25793;-67
2021/08/24 11:58:27;;;;;;;6.95;3.62;;;;;;;19.90;48.36;101627.09;1739425;80;25924;-68